Time;durP1;ratioP1;P1;durP2;ratioP2;P2;SDS_P1;SDS_P2;PMS_P1;PMS_P2;Temp;Humidity;BMP_temperature;BMP_pressure;BME280_temperature;BME280_humidity;BME280_pressure;Samples;Min_cycle;Max_cycle;Signal;HPM_P1;HPM_P2
2021/10/29 00:00:17;;;;;;;14.30;7.97;;;;;;;9.98;96.44;100869.88;5098935;27;20048;-73
2021/10/29 00:02:44;;;;;;;13.88;8.15;;;;;;;9.93;96.40;100869.13;5099704;27;20350;-73
2021/10/29 00:05:12;;;;;;;18.77;8.90;;;;;;;9.95;96.58;100858.44;5100668;27;20051;-73
2021/10/29 00:07:42;;;;;;;18.77;9.40;;;;;;;9.90;96.72;100869.22;5100189;27;20164;-73
2021/10/29 00:10:10;;;;;;;14.05;8.25;;;;;;;9.89;96.58;100868.34;5100381;28;20061;-74
2021/10/29 00:12:38;;;;;;;17.42;9.32;;;;;;;9.88;96.71;100873.72;5099657;27;20047;-73
2021/10/29 00:15:07;;;;;;;15.80;8.45;;;;;;;9.83;96.76;100872.97;5101048;27;20048;-73
2021/10/29 00:17:34;;;;;;;14.45;7.93;;;;;;;9.75;97.19;100861.66;5097454;27;20600;-73
2021/10/29 00:20:02;;;;;;;14.27;7.88;;;;;;;9.77;97.21;100860.69;5100304;27;20427;-73
2021/10/29 00:22:30;;;;;;;13.38;7.55;;;;;;;9.76;97.08;100866.09;5100009;27;20136;-73
2021/10/29 00:24:59;;;;;;;17.02;8.60;;;;;;;9.70;97.54;100864.44;5100742;28;20116;-73
2021/10/29 00:27:27;;;;;;;14.57;8.60;;;;;;;9.70;97.39;100865.34;5092896;27;20072;-73
2021/10/29 00:29:55;;;;;;;15.27;8.63;;;;;;;9.68;97.64;100861.81;5086310;27;20158;-75
2021/10/29 00:32:23;;;;;;;16.30;9.15;;;;;;;9.69;97.39;100852.91;5083758;27;20062;-74
2021/10/29 00:34:51;;;;;;;16.42;9.15;;;;;;;9.69;97.21;100855.59;5085488;27;20151;-73
2021/10/29 00:37:18;;;;;;;14.45;8.10;;;;;;;9.77;96.92;100857.16;5084992;27;20138;-73
2021/10/29 00:39:46;;;;;;;16.55;9.10;;;;;;;9.75;96.78;100853.66;5085906;28;20054;-73
2021/10/29 00:42:15;;;;;;;18.77;9.15;;;;;;;9.78;96.67;100856.25;5085798;27;20055;-73
2021/10/29 00:44:43;;;;;;;14.65;9.15;;;;;;;9.69;97.22;100858.25;5081045;28;20135;-74
2021/10/29 00:47:12;;;;;;;16.60;8.43;;;;;;;9.77;96.55;100858.00;5083526;27;20049;-73
2021/10/29 00:49:40;;;;;;;15.98;8.25;;;;;;;9.86;96.12;100857.78;5086514;28;20062;-74
2021/10/29 00:52:08;;;;;;;23.13;9.38;;;;;;;9.81;96.33;100848.16;5085153;27;20431;-73
2021/10/29 00:54:36;;;;;;;16.13;9.25;;;;;;;9.86;95.98;100847.09;5087585;27;20059;-73
2021/10/29 00:57:04;;;;;;;16.67;8.85;;;;;;;9.86;95.63;100844.44;5081560;28;20047;-76
2021/10/29 00:59:33;;;;;;;18.13;8.38;;;;;;;9.83;96.22;100851.66;5088957;28;20230;-75
2021/10/29 01:02:01;;;;;;;16.23;8.80;;;;;;;9.79;96.31;100856.22;5085613;27;20056;-75
2021/10/29 01:04:29;;;;;;;17.98;8.65;;;;;;;9.73;96.81;100849.25;5085088;27;20545;-75
2021/10/29 01:06:58;;;;;;;16.90;8.32;;;;;;;9.76;96.35;100852.75;5087087;28;20410;-74
2021/10/29 01:09:26;;;;;;;17.27;8.07;;;;;;;9.81;96.20;100853.50;5085663;28;20142;-75
2021/10/29 01:11:54;;;;;;;15.57;9.55;;;;;;;9.82;95.99;100836.56;5084417;28;20328;-74
2021/10/29 01:14:22;;;;;;;17.35;8.27;;;;;;;9.85;95.86;100842.69;5085012;28;20093;-75
2021/10/29 01:16:51;;;;;;;16.10;8.70;;;;;;;9.81;95.96;100845.50;5085707;27;20195;-74
2021/10/29 01:19:19;;;;;;;15.23;8.68;;;;;;;9.84;95.75;100843.63;5081972;28;20136;-74
2021/10/29 01:21:48;;;;;;;14.68;8.57;;;;;;;9.84;95.55;100840.06;5084853;27;20054;-74
2021/10/29 01:24:16;;;;;;;17.05;8.85;;;;;;;9.90;95.38;100838.09;5083716;27;20063;-74
2021/10/29 01:26:44;;;;;;;18.73;8.98;;;;;;;9.91;95.17;100834.53;5086607;28;20048;-74
2021/10/29 01:29:12;;;;;;;13.98;7.95;;;;;;;9.95;95.01;100831.78;5086771;28;20598;-74
2021/10/29 01:31:40;;;;;;;18.45;8.45;;;;;;;9.97;94.70;100824.59;5084385;27;20050;-74
2021/10/29 01:34:08;;;;;;;14.57;8.75;;;;;;;9.99;94.54;100826.28;5084025;27;20044;-74
2021/10/29 01:36:36;;;;;;;17.13;8.05;;;;;;;9.93;94.73;100815.81;5082881;28;20055;-74
2021/10/29 01:39:05;;;;;;;15.93;8.07;;;;;;;9.86;95.07;100828.47;5082989;28;20129;-74
2021/10/29 01:41:33;;;;;;;16.63;8.10;;;;;;;9.95;94.68;100816.66;5082940;27;20128;-74
2021/10/29 01:44:02;;;;;;;16.15;7.35;;;;;;;9.95;94.71;100816.66;5083573;28;20051;-74
2021/10/29 01:46:30;;;;;;;18.13;8.95;;;;;;;9.91;94.75;100815.88;5083051;28;20071;-74
2021/10/29 01:48:58;;;;;;;16.52;8.50;;;;;;;9.99;94.16;100812.97;5083869;28;20051;-74
2021/10/29 01:51:26;;;;;;;13.68;7.38;;;;;;;9.94;94.53;100798.03;5081269;27;21049;-74
2021/10/29 01:53:54;;;;;;;17.58;8.88;;;;;;;9.93;94.32;100799.84;5082867;28;20059;-74
2021/10/29 01:56:23;;;;;;;14.77;7.40;;;;;;;9.87;94.77;100795.53;5081986;28;20075;-74
2021/10/29 01:58:51;;;;;;;19.05;8.70;;;;;;;9.98;94.25;100784.56;5081977;28;20051;-74
2021/10/29 02:01:19;;;;;;;13.25;7.22;;;;;;;9.97;94.24;100774.81;5086549;28;20052;-75
2021/10/29 02:03:47;;;;;;;15.30;7.82;;;;;;;9.92;94.18;100774.09;5081515;28;20603;-74
2021/10/29 02:06:15;;;;;;;17.23;8.77;;;;;;;9.92;94.16;100760.75;5086084;28;20054;-74
2021/10/29 02:08:43;;;;;;;16.25;8.02;;;;;;;9.98;94.01;100763.25;5081230;28;20040;-74
2021/10/29 02:11:12;;;;;;;14.07;7.43;;;;;;;9.95;94.23;100757.16;5083101;28;20058;-74
2021/10/29 02:13:42;;;;;;;14.93;8.05;;;;;;;9.95;94.12;100758.00;5084098;28;20131;-74
2021/10/29 02:16:11;;;;;;;15.07;8.55;;;;;;;9.96;93.76;100759.75;5084567;28;20059;-67
2021/10/29 02:18:39;;;;;;;14.27;8.23;;;;;;;9.91;94.25;100757.22;5087745;27;20043;-67
2021/10/29 02:21:06;;;;;;;15.20;8.27;;;;;;;9.96;93.94;100749.09;5081139;27;20051;-67
2021/10/29 02:23:34;;;;;;;14.85;8.13;;;;;;;9.88;94.10;100751.13;5085427;28;20586;-67
2021/10/29 02:26:02;;;;;;;14.68;8.00;;;;;;;9.88;94.22;100749.31;5080323;28;20317;-67
2021/10/29 02:28:30;;;;;;;18.45;9.02;;;;;;;9.91;94.16;100743.91;5081837;28;20109;-67
2021/10/29 02:30:59;;;;;;;17.95;8.05;;;;;;;9.79;94.61;100768.28;5083302;27;20058;-68
2021/10/29 02:33:28;;;;;;;14.32;8.20;;;;;;;9.85;94.48;100752.06;5082186;28;20170;-67
2021/10/29 02:35:55;;;;;;;15.10;8.48;;;;;;;9.92;94.03;100755.44;5079248;28;20054;-67
2021/10/29 02:38:23;;;;;;;16.42;8.48;;;;;;;9.85;94.34;100751.22;5085077;27;21198;-67
2021/10/29 02:40:52;;;;;;;14.13;7.60;;;;;;;9.86;94.31;100743.16;5083568;28;20516;-67
2021/10/29 02:43:21;;;;;;;15.45;8.73;;;;;;;9.82;94.57;100757.50;5081044;28;20055;-67
2021/10/29 02:45:48;;;;;;;16.30;8.73;;;;;;;9.78;94.76;100749.66;5083842;28;20357;-67
2021/10/29 02:48:17;;;;;;;14.32;8.35;;;;;;;9.76;94.88;100757.69;5082284;28;20047;-67
2021/10/29 02:50:45;;;;;;;17.25;7.60;;;;;;;9.72;95.02;100754.25;5081900;28;20051;-67
2021/10/29 02:53:13;;;;;;;15.98;8.57;;;;;;;9.80;94.68;100739.81;5079625;28;20495;-67
2021/10/29 02:55:40;;;;;;;14.02;7.60;;;;;;;9.75;95.01;100747.09;5085442;28;20172;-67
2021/10/29 02:58:08;;;;;;;14.52;7.55;;;;;;;9.83;94.48;100742.41;5083580;27;20512;-67
2021/10/29 03:00:36;;;;;;;16.10;8.25;;;;;;;9.82;94.38;100749.50;5084187;28;20052;-67
2021/10/29 03:03:04;;;;;;;16.33;9.05;;;;;;;9.86;94.28;100736.97;5081112;28;20147;-67
2021/10/29 03:05:36;;;;;;;16.27;9.75;;;;;;;9.79;94.51;100744.28;5079951;28;20242;-67
2021/10/29 03:08:04;;;;;;;16.90;7.20;;;;;;;9.81;94.25;100736.25;5083366;28;20708;-67
2021/10/29 03:10:32;;;;;;;16.08;8.20;;;;;;;9.73;94.81;100732.00;5079973;28;20142;-67
2021/10/29 03:13:00;;;;;;;15.57;7.80;;;;;;;9.67;95.15;100739.31;5083409;28;20052;-67
2021/10/29 03:15:28;;;;;;;16.15;8.38;;;;;;;9.70;94.88;100732.13;5081358;28;20493;-67
2021/10/29 03:17:56;;;;;;;16.55;8.43;;;;;;;9.75;94.80;100737.28;5082744;28;20050;-67
2021/10/29 03:20:24;;;;;;;16.88;8.48;;;;;;;9.74;94.86;100724.91;5083547;28;20073;-73
2021/10/29 03:22:54;;;;;;;13.70;8.02;;;;;;;9.75;94.70;100733.75;5082435;28;20146;-67
2021/10/29 03:25:22;;;;;;;16.85;8.60;;;;;;;9.67;95.31;100721.53;5084536;28;21688;-67
2021/10/29 03:27:51;;;;;;;13.80;7.68;;;;;;;9.64;95.33;100724.28;5081805;28;20821;-67
2021/10/29 03:30:19;;;;;;;17.42;8.40;;;;;;;9.63;95.47;100722.53;5082031;28;20058;-67
2021/10/29 03:32:47;;;;;;;19.13;8.80;;;;;;;9.59;95.74;100717.38;5080385;28;20922;-67
2021/10/29 03:35:14;;;;;;;15.30;8.07;;;;;;;9.65;95.37;100717.16;5083104;28;20059;-67
2021/10/29 03:40:46;;;;;;;15.32;8.52;;;;;;;9.66;95.42;100717.13;5079557;27;20409;-67
2021/10/29 03:43:18;;;;;;;14.88;8.13;;;;;;;9.73;94.92;100713.34;5079296;28;20055;-67
2021/10/29 03:45:50;;;;;;;17.00;7.88;;;;;;;9.68;95.27;100715.28;5079833;28;20055;-68
2021/10/29 03:48:20;;;;;;;15.05;8.93;;;;;;;9.71;94.96;100715.19;5079928;28;20044;-67
2021/10/29 03:51:00;;;;;;;17.42;8.45;;;;;;;9.66;95.37;100714.47;5078280;28;20044;-67
2021/10/29 03:53:33;;;;;;;14.60;7.47;;;;;;;9.59;95.98;100712.91;5076854;28;20500;-73
2021/10/29 03:56:03;;;;;;;15.90;8.60;;;;;;;9.56;96.25;100706.81;5078154;28;20410;-74
2021/10/29 03:58:32;;;;;;;18.60;9.23;;;;;;;9.60;96.04;100695.13;5080204;28;20611;-75
2021/10/29 04:01:00;;;;;;;15.07;8.05;;;;;;;9.64;95.89;100710.97;5078370;28;20147;-74
2021/10/29 04:03:28;;;;;;;15.07;8.55;;;;;;;9.66;95.88;100725.13;5079661;28;20139;-74
2021/10/29 04:05:56;;;;;;;16.88;7.60;;;;;;;9.68;95.55;100711.75;5077302;28;20211;-74
2021/10/29 04:08:24;;;;;;;14.32;9.13;;;;;;;9.67;95.65;100708.22;5077394;28;20043;-74
2021/10/29 04:10:52;;;;;;;18.83;8.15;;;;;;;9.73;95.34;100707.16;5079705;28;20052;-74
2021/10/29 04:13:21;;;;;;;15.52;7.97;;;;;;;9.68;95.39;100699.28;5080445;28;20047;-74
2021/10/29 04:15:49;;;;;;;14.95;7.85;;;;;;;9.64;95.93;100704.78;5080277;28;20055;-75
2021/10/29 04:18:17;;;;;;;16.52;8.32;;;;;;;9.68;95.94;100696.63;5076962;28;20072;-73
2021/10/29 04:20:45;;;;;;;16.17;7.80;;;;;;;9.75;95.34;100707.13;5078486;28;20490;-73
2021/10/29 04:23:13;;;;;;;14.98;7.95;;;;;;;9.71;95.27;100703.66;5078421;28;20488;-74
2021/10/29 04:25:41;;;;;;;16.88;8.75;;;;;;;9.68;95.59;100703.75;5082864;28;20074;-73
2021/10/29 04:28:10;;;;;;;19.50;8.60;;;;;;;9.68;95.56;100698.44;5079099;28;20101;-74
2021/10/29 04:30:43;;;;;;;16.48;8.38;;;;;;;9.66;95.78;100694.94;5080955;28;20681;-73
2021/10/29 04:33:12;;;;;;;16.42;8.82;;;;;;;9.70;95.66;100693.91;5078314;28;20047;-73
2021/10/29 04:35:44;;;;;;;15.93;8.32;;;;;;;9.59;96.09;100686.25;5077681;28;20052;-75
2021/10/29 04:38:14;;;;;;;13.07;7.75;;;;;;;9.63;95.65;100687.91;5083082;28;20395;-75
2021/10/29 04:40:43;;;;;;;16.80;8.65;;;;;;;9.67;95.56;100678.91;5077853;28;20377;-67
2021/10/29 04:43:12;;;;;;;16.42;8.43;;;;;;;9.58;96.21;100684.50;5079908;28;20551;-66
2021/10/29 04:45:42;;;;;;;13.90;7.65;;;;;;;9.61;95.97;100673.75;5076915;28;20518;-66
2021/10/29 04:48:09;;;;;;;14.18;7.55;;;;;;;9.68;95.73;100674.44;5078901;28;20056;-66
2021/10/29 04:50:37;;;;;;;16.88;7.63;;;;;;;9.67;95.75;100676.25;5073001;28;20040;-66
2021/10/29 04:53:05;;;;;;;16.48;8.88;;;;;;;9.73;95.33;100667.19;5062941;28;20055;-73
2021/10/29 04:55:33;;;;;;;15.23;7.82;;;;;;;9.68;95.43;100664.66;5064009;28;20052;-73
2021/10/29 04:58:01;;;;;;;15.57;7.80;;;;;;;9.71;95.29;100667.22;5063425;28;20646;-73
2021/10/29 05:00:29;;;;;;;15.35;8.45;;;;;;;9.77;94.89;100665.28;5062780;28;20484;-73
2021/10/29 05:02:59;;;;;;;19.13;8.23;;;;;;;9.73;95.12;100660.06;5063239;28;20143;-73
2021/10/29 05:05:27;;;;;;;14.57;8.25;;;;;;;9.81;94.53;100662.50;5064517;28;20226;-72
2021/10/29 05:07:55;;;;;;;14.02;7.65;;;;;;;9.78;94.68;100669.72;5061791;28;20052;-73
2021/10/29 05:10:23;;;;;;;15.85;8.38;;;;;;;9.77;94.81;100657.31;5064682;28;20066;-73
2021/10/29 05:12:51;;;;;;;14.15;8.30;;;;;;;9.83;94.01;100654.44;5061630;28;20110;-73
2021/10/29 05:15:19;;;;;;;16.17;8.25;;;;;;;9.80;94.42;100658.06;5064938;28;20093;-73
2021/10/29 05:17:48;;;;;;;16.08;8.35;;;;;;;9.84;94.32;100662.41;5063155;28;20054;-73
2021/10/29 05:20:17;;;;;;;16.88;7.85;;;;;;;9.85;94.14;100647.28;5063159;28;20219;-74
2021/10/29 05:22:45;;;;;;;15.63;7.70;;;;;;;9.80;94.40;100647.41;5066373;28;20605;-74
2021/10/29 05:25:13;;;;;;;14.88;8.45;;;;;;;9.85;94.03;100655.28;5060839;28;20131;-74
2021/10/29 05:27:42;;;;;;;14.48;8.50;;;;;;;9.88;93.78;100642.72;5065317;28;20405;-72
2021/10/29 05:30:11;;;;;;;16.48;9.23;;;;;;;9.85;94.07;100655.28;5060185;28;20082;-73
2021/10/29 05:32:39;;;;;;;12.98;7.30;;;;;;;9.85;93.97;100652.59;5065745;28;20080;-73
2021/10/29 05:35:08;;;;;;;14.25;7.70;;;;;;;9.85;93.85;100647.28;5063720;28;20134;-73
2021/10/29 05:37:37;;;;;;;16.92;8.32;;;;;;;9.76;94.53;100650.25;5065371;28;20079;-73
2021/10/29 05:40:07;;;;;;;15.25;7.97;;;;;;;9.79;94.51;100651.00;5062144;28;20041;-73
2021/10/29 05:42:35;;;;;;;16.13;7.15;;;;;;;9.82;94.18;100644.69;5063609;28;20087;-73
2021/10/29 05:45:05;;;;;;;14.13;7.30;;;;;;;9.86;93.87;100647.22;5066089;28;20052;-73
2021/10/29 05:47:33;;;;;;;13.50;7.72;;;;;;;9.84;94.19;100643.75;5064145;28;20056;-73
2021/10/29 05:50:01;;;;;;;15.07;8.23;;;;;;;9.84;94.13;100648.19;5065018;28;20132;-72
2021/10/29 05:52:30;;;;;;;12.88;7.65;;;;;;;9.84;94.19;100635.75;5063525;28;20474;-73
2021/10/29 05:57:46;;;;;;;14.25;7.45;;;;;;;9.96;93.41;100639.81;5060216;28;20049;-72
2021/10/29 06:00:16;;;;;;;14.32;8.30;;;;;;;9.92;93.55;100632.81;5061930;28;20144;-72
2021/10/29 06:02:44;;;;;;;14.32;7.82;;;;;;;9.91;93.77;100639.94;5060434;28;20059;-72
2021/10/29 06:05:13;;;;;;;14.32;7.32;;;;;;;9.91;93.56;100637.28;5061802;28;20495;-73
2021/10/29 06:07:41;;;;;;;13.70;7.53;;;;;;;9.87;93.91;100632.97;5063576;28;20139;-73
2021/10/29 06:10:14;;;;;;;15.88;7.15;;;;;;;9.87;93.95;100632.97;5063411;28;20122;-74
2021/10/29 06:12:43;;;;;;;14.73;7.65;;;;;;;9.85;93.86;100634.81;5063690;28;20083;-73
2021/10/29 06:15:13;;;;;;;14.63;7.60;;;;;;;9.89;94.18;100636.47;5063419;28;20155;-73
2021/10/29 06:17:41;;;;;;;15.68;7.90;;;;;;;9.95;93.31;100632.72;5063578;28;20049;-73
2021/10/29 06:20:12;;;;;;;14.50;7.43;;;;;;;10.03;93.00;100630.69;5062914;28;20055;-73
2021/10/29 06:22:43;;;;;;;15.15;7.35;;;;;;;10.06;92.74;100625.25;5062371;28;20048;-73
2021/10/29 06:25:16;;;;;;;13.20;6.70;;;;;;;10.02;92.93;100630.72;5063343;28;20059;-73
2021/10/29 06:30:30;;;;;;;14.52;7.97;;;;;;;10.03;92.73;100627.16;5060988;28;20048;-73
2021/10/29 06:32:59;;;;;;;15.77;8.15;;;;;;;10.14;92.08;100632.13;5060261;28;20161;-73
2021/10/29 06:35:29;;;;;;;13.13;7.00;;;;;;;10.22;91.73;100638.94;5063196;28;20078;-73
2021/10/29 06:37:58;;;;;;;16.70;7.57;;;;;;;10.23;91.62;100623.81;5065802;28;20052;-72
2021/10/29 06:40:28;;;;;;;14.80;7.68;;;;;;;10.15;91.96;100634.75;5062522;28;20127;-72
2021/10/29 06:42:59;;;;;;;16.15;7.88;;;;;;;10.27;91.22;100622.78;5059246;28;20473;-72
2021/10/29 06:45:47;;;;;;;13.13;7.05;;;;;;;10.33;90.76;100629.72;5019132;28;20170;-73
2021/10/29 06:48:20;;;;;;;15.80;7.88;;;;;;;10.21;91.41;100629.19;5027162;28;20075;-73
2021/10/29 06:59:23;;;;;;;15.82;7.68;;;;;;;10.27;91.33;100620.13;5024882;28;21237;-73
2021/10/29 07:01:57;;;;;;;14.95;8.55;;;;;;;10.39;90.60;100627.72;5022687;28;20156;-66
2021/10/29 07:05:00;;;;;;;11.98;7.22;;;;;;;10.38;90.75;100625.97;5020891;28;20341;-66
2021/10/29 07:40:50;;;;;;;13.73;7.22;;;;;;;10.56;90.26;100602.25;5002169;28;20092;-71
2021/10/29 07:43:26;;;;;;;14.30;6.80;;;;;;;10.60;90.22;100593.22;4999993;28;20144;-73
2021/10/29 07:45:55;;;;;;;12.60;7.10;;;;;;;10.62;89.99;100594.91;5001890;28;20512;-73
2021/10/29 07:48:23;;;;;;;16.90;7.78;;;;;;;10.73;89.37;100596.31;5000137;28;20682;-73
2021/10/29 07:50:51;;;;;;;14.68;6.68;;;;;;;10.73;89.40;100583.84;5004460;28;20320;-67
2021/10/29 07:53:19;;;;;;;12.63;7.13;;;;;;;10.76;89.40;100580.16;4997292;28;20049;-66
2021/10/29 07:55:46;;;;;;;13.65;6.88;;;;;;;10.85;88.77;100577.19;5004281;28;20128;-66
2021/10/29 07:58:14;;;;;;;12.75;6.97;;;;;;;10.95;88.03;100596.41;5003390;28;20639;-73
2021/10/29 08:00:42;;;;;;;11.73;7.32;;;;;;;11.07;87.20;100579.00;5001924;28;20046;-73
2021/10/29 08:03:13;;;;;;;12.95;6.90;;;;;;;11.07;87.76;100581.69;5003080;28;20422;-73
2021/10/29 08:05:45;;;;;;;14.60;7.68;;;;;;;11.18;86.73;100584.81;5002695;28;20056;-72
2021/10/29 08:08:16;;;;;;;13.63;6.78;;;;;;;11.21;86.81;100585.56;5003115;28;20376;-72
2021/10/29 08:10:44;;;;;;;13.23;6.60;;;;;;;11.23;86.51;100579.31;5003530;28;20054;-72
2021/10/29 08:13:13;;;;;;;12.65;6.43;;;;;;;11.25;86.89;100583.66;5004978;28;20041;-72
2021/10/29 08:15:42;;;;;;;12.43;6.70;;;;;;;11.20;87.11;100586.53;5004372;28;20038;-73
2021/10/29 08:18:12;;;;;;;12.77;6.53;;;;;;;11.30;86.50;100580.81;5004333;28;20076;-73
2021/10/29 08:20:41;;;;;;;12.57;7.20;;;;;;;11.32;86.50;100585.19;5002613;28;20079;-73
2021/10/29 08:23:11;;;;;;;11.63;6.63;;;;;;;11.42;85.54;100561.63;5004211;28;20781;-73
2021/10/29 08:25:39;;;;;;;13.38;7.05;;;;;;;11.38;86.31;100573.38;5004375;28;20116;-66
2021/10/29 08:28:07;;;;;;;12.73;6.95;;;;;;;11.43;86.29;100566.03;5007418;28;20054;-67
2021/10/29 08:30:50;;;;;;;14.07;7.15;;;;;;;11.48;86.08;100563.19;5006053;28;20501;-74
2021/10/29 08:33:20;;;;;;;16.67;7.15;;;;;;;11.48;85.80;100553.38;5008681;28;20534;-73
2021/10/29 08:35:48;;;;;;;13.32;6.60;;;;;;;11.59;85.83;100555.59;5009434;28;20046;-73
2021/10/29 08:38:17;;;;;;;16.02;7.28;;;;;;;11.66;85.61;100561.56;5002729;28;20053;-66
2021/10/29 08:40:45;;;;;;;15.90;7.18;;;;;;;11.81;84.66;100547.56;5004824;28;20077;-66
2021/10/29 08:43:13;;;;;;;14.90;7.45;;;;;;;11.91;84.15;100553.44;5003022;28;20679;-67
2021/10/29 08:45:41;;;;;;;13.38;6.50;;;;;;;12.00;83.87;100555.69;5006034;28;20056;-66
2021/10/29 08:48:09;;;;;;;12.60;6.85;;;;;;;12.10;83.99;100553.50;5005866;28;20075;-66
2021/10/29 08:50:39;;;;;;;12.40;6.35;;;;;;;12.21;83.04;100553.03;5007787;28;20052;-66
2021/10/29 08:53:06;;;;;;;12.02;6.70;;;;;;;12.31;82.36;100549.91;5001536;28;20059;-66
2021/10/29 08:55:35;;;;;;;13.13;6.78;;;;;;;12.43;82.16;100552.97;5006494;28;20049;-66
2021/10/29 08:58:07;;;;;;;11.98;6.40;;;;;;;12.45;81.83;100553.78;5006437;28;20441;-66
2021/10/29 09:00:39;;;;;;;12.15;7.03;;;;;;;12.60;81.38;100549.53;5003784;28;20060;-67
2021/10/29 09:03:10;;;;;;;9.40;5.82;;;;;;;12.71;81.12;100548.13;5007141;28;20050;-66
2021/10/29 09:05:49;;;;;;;12.32;6.05;;;;;;;12.74;80.47;100535.56;5003837;28;20058;-66
2021/10/29 09:08:22;;;;;;;13.27;6.78;;;;;;;12.84;79.45;100542.22;5006543;28;20088;-66
2021/10/29 09:31:26;;;;;;;12.50;6.68;;;;;;;13.40;76.74;100521.72;4998179;28;20425;-69
2021/10/29 09:33:58;;;;;;;12.68;6.57;;;;;;;13.55;76.37;100525.47;5001084;28;20050;-67
2021/10/29 09:36:32;;;;;;;11.20;7.05;;;;;;;13.76;76.18;100521.72;5006875;28;20135;-67
2021/10/29 09:39:03;;;;;;;;;;;;;;;13.78;76.18;100522.50;5005763;28;20053;-67
2021/10/29 09:41:31;;;;;;;12.77;7.22;;;;;;;13.80;75.51;100506.34;5002781;28;20002;-67
2021/10/29 09:44:01;;;;;;;11.68;6.13;;;;;;;13.81;75.28;100506.28;5004786;28;20347;-68
2021/10/29 09:46:32;;;;;;;13.70;6.38;;;;;;;13.98;74.54;100515.28;5002715;28;20144;-68
2021/10/29 09:49:12;;;;;;;11.32;6.00;;;;;;;14.05;74.37;100519.38;5002382;28;20053;-68
2021/10/29 09:51:54;;;;;;;12.45;5.88;;;;;;;14.27;74.30;100518.25;5000894;28;20054;-68
2021/10/29 09:54:36;;;;;;;12.68;6.70;;;;;;;14.23;73.39;100497.91;4996906;28;20295;-68
2021/10/29 09:57:05;;;;;;;12.75;5.65;;;;;;;14.25;73.32;100506.72;4998483;28;20077;-68
2021/10/29 09:59:34;;;;;;;9.60;5.60;;;;;;;14.46;73.50;100494.00;5002189;28;20054;-68
2021/10/29 10:02:03;;;;;;;10.82;5.72;;;;;;;14.54;72.87;100502.47;4998610;28;20452;-68
2021/10/29 10:04:32;;;;;;;11.48;5.65;;;;;;;14.63;72.45;100490.44;5005429;28;20049;-69
2021/10/29 10:07:01;;;;;;;10.43;5.50;;;;;;;14.72;72.05;100487.25;5004427;28;20049;-68
2021/10/29 10:09:34;;;;;;;10.77;5.50;;;;;;;14.85;71.39;100480.25;5002538;28;20061;-73
2021/10/29 10:12:03;;;;;;;11.57;6.18;;;;;;;14.92;71.33;100492.38;5004217;28;21223;-76
2021/10/29 10:14:32;;;;;;;11.00;5.47;;;;;;;14.88;70.96;100471.13;5003536;28;20119;-77
2021/10/29 10:17:00;;;;;;;13.82;5.60;;;;;;;15.04;70.23;100474.69;5005609;28;20497;-73
2021/10/29 10:19:28;;;;;;;13.02;5.50;;;;;;;15.20;70.76;100479.19;5001164;28;20061;-73
2021/10/29 10:21:57;;;;;;;10.20;5.38;;;;;;;15.03;69.85;100464.03;5004349;28;20045;-73
2021/10/29 10:24:29;;;;;;;10.65;5.07;;;;;;;15.07;69.95;100457.56;5006430;28;20060;-74
2021/10/29 10:27:22;;;;;;;10.20;5.03;;;;;;;15.08;69.86;100444.00;5000449;28;20049;-75
2021/10/29 10:46:20;;;;;;;9.75;5.18;;;;;;;15.65;68.44;100412.97;5001271;28;20052;-73
2021/10/29 10:48:54;;;;;;;10.10;5.93;;;;;;;15.75;68.66;100407.88;5000050;28;20478;-73
2021/10/29 10:51:47;;;;;;;7.32;4.57;;;;;;;15.62;67.32;100400.53;5000500;28;20140;-74
2021/10/29 10:54:27;;;;;;;10.70;4.70;;;;;;;15.68;67.16;100400.19;4999731;28;20052;-74
2021/10/29 10:57:07;;;;;;;11.18;5.15;;;;;;;15.71;67.21;100388.38;5004262;28;20046;-74
2021/10/29 10:59:53;;;;;;;9.73;5.25;;;;;;;15.63;67.33;100404.09;5004467;28;20200;-73
2021/10/29 11:11:19;;;;;;;9.98;5.28;;;;;;;16.11;66.77;100409.31;5003199;28;20176;-75
2021/10/29 11:13:57;;;;;;;9.45;5.32;;;;;;;15.87;66.02;100426.00;5001864;28;20077;-74
2021/10/29 11:16:31;;;;;;;12.10;5.05;;;;;;;15.72;66.95;100417.00;5005199;28;20144;-68
2021/10/29 11:19:09;;;;;;;10.32;5.28;;;;;;;15.86;66.60;100429.66;5002623;28;20058;-69
2021/10/29 11:21:47;;;;;;;12.02;4.97;;;;;;;15.97;66.24;100400.28;5002844;28;20052;-68
2021/10/29 11:24:17;;;;;;;11.68;5.38;;;;;;;15.94;66.78;100411.22;5002188;28;20092;-69
2021/10/29 11:26:47;;;;;;;11.50;5.57;;;;;;;16.09;66.18;100408.53;5002785;28;20278;-68
2021/10/29 11:29:16;;;;;;;9.05;5.18;;;;;;;15.97;67.06;100392.19;5003170;28;20046;-67
2021/10/29 11:31:49;;;;;;;11.38;5.47;;;;;;;16.06;66.07;100386.25;5001611;28;20515;-69
2021/10/29 11:34:18;;;;;;;11.90;5.28;;;;;;;15.97;66.69;100386.81;5005936;28;20046;-68
2021/10/29 11:36:51;;;;;;;11.05;5.68;;;;;;;16.40;66.42;100381.44;4996915;28;22346;-68
2021/10/29 11:39:22;;;;;;;10.75;5.32;;;;;;;16.32;65.66;100383.72;5003546;28;20045;-68
2021/10/29 11:41:52;;;;;;;12.32;5.18;;;;;;;16.55;65.22;100384.09;5000706;28;20077;-68
2021/10/29 11:44:23;;;;;;;12.07;5.35;;;;;;;16.10;65.96;100373.44;5002407;28;20033;-68
2021/10/29 11:46:55;;;;;;;10.48;5.35;;;;;;;16.38;66.11;100356.44;5006076;28;20534;-74
2021/10/29 11:49:27;;;;;;;10.65;4.95;;;;;;;16.55;65.13;100357.16;5002095;28;20653;-75
2021/10/29 11:51:56;;;;;;;9.40;5.13;;;;;;;16.40;65.27;100365.28;5006904;28;20168;-74
2021/10/29 11:54:28;;;;;;;11.48;5.78;;;;;;;16.29;65.53;100335.47;4994469;28;20501;-75
2021/10/29 11:57:10;;;;;;;10.02;5.28;;;;;;;16.47;65.27;100335.25;5003947;28;20155;-74
2021/10/29 12:07:53;;;;;;;11.05;6.28;;;;;;;16.32;65.87;100340.66;5007897;28;20065;-75
2021/10/29 12:10:22;;;;;;;13.52;5.35;;;;;;;16.33;64.86;100325.38;5007005;28;20403;-75
2021/10/29 12:12:55;;;;;;;12.30;4.95;;;;;;;16.60;64.44;100314.63;5007922;28;20493;-75
2021/10/29 12:15:26;;;;;;;8.05;4.88;;;;;;;16.65;65.37;100309.81;5007771;28;20045;-75
2021/10/29 12:17:59;;;;;;;11.55;4.63;;;;;;;16.69;65.08;100332.91;5005864;28;20089;-75
2021/10/29 12:20:31;;;;;;;10.55;5.13;;;;;;;16.89;64.62;100325.34;5007426;28;20059;-74
2021/10/29 12:23:05;;;;;;;10.85;4.80;;;;;;;16.89;64.62;100330.72;5007582;28;20151;-75
2021/10/29 12:25:39;;;;;;;12.57;4.80;;;;;;;16.93;64.56;100327.75;5005636;28;20493;-74
2021/10/29 12:28:08;;;;;;;10.57;5.03;;;;;;;16.76;64.31;100333.34;5008423;28;20593;-75
2021/10/29 12:30:41;;;;;;;11.48;5.05;;;;;;;16.88;64.72;100318.25;5008256;28;20140;-74
2021/10/29 12:59:13;;;;;;;9.98;4.88;;;;;;;16.46;66.45;100277.84;5005530;28;20492;-69
2021/10/29 13:01:54;;;;;;;9.60;4.53;;;;;;;16.43;66.62;100278.91;5007655;28;20481;-68
2021/10/29 13:04:24;;;;;;;9.27;4.97;;;;;;;16.47;66.94;100278.72;5003504;28;20092;-69
2021/10/29 13:06:56;;;;;;;9.50;5.20;;;;;;;16.46;66.75;100276.97;5007175;28;20458;-67
2021/10/29 13:09:26;;;;;;;16.75;6.35;;;;;;;16.43;66.81;100284.31;5004789;28;20236;-68
2021/10/29 13:11:57;;;;;;;11.50;4.90;;;;;;;16.31;67.18;100290.50;5005798;28;20058;-68
2021/10/29 13:14:30;;;;;;;9.68;5.07;;;;;;;16.34;67.05;100284.88;5010124;28;20085;-68
2021/10/29 13:17:00;;;;;;;12.07;4.75;;;;;;;16.36;67.19;100276.72;5004666;28;20042;-70
2021/10/29 13:19:42;;;;;;;8.95;5.43;;;;;;;16.37;67.16;100289.22;5007103;28;20477;-67
2021/10/29 13:52:52;;;;;;;14.38;7.57;;;;;;;16.04;68.90;100293.97;5002588;28;20108;-77
2021/10/29 13:58:37;;;;;;;12.48;6.63;;;;;;;15.96;69.34;100290.91;4989832;28;20168;-75
2021/10/29 14:04:06;;;;;;;12.73;5.38;;;;;;;15.90;70.32;100298.50;5001599;28;20452;-75
2021/10/29 14:28:52;;;;;;;11.20;6.13;;;;;;;15.17;80.12;100321.72;5006917;28;20141;-74
2021/10/29 14:31:25;;;;;;;10.77;6.00;;;;;;;15.04;81.58;100323.38;5005822;28;20073;-74
2021/10/29 14:33:58;;;;;;;10.70;5.95;;;;;;;14.92;82.99;100330.34;5006645;28;21796;-74
2021/10/29 14:36:31;;;;;;;11.23;6.13;;;;;;;14.84;83.28;100337.97;5002123;28;20089;-74
2021/10/29 14:39:06;;;;;;;10.50;5.45;;;;;;;14.79;84.09;100332.00;5005165;28;20532;-74
2021/10/29 14:41:40;;;;;;;13.27;5.57;;;;;;;14.69;84.28;100323.59;5003487;28;20437;-68
2021/10/29 14:44:15;;;;;;;9.60;5.38;;;;;;;14.58;85.71;100310.75;5006955;28;20153;-68